createdAt,value
2023-01-07T00:01:20.628Z,14.48
2023-01-07T00:03:23.588Z,16.00
2023-01-07T00:05:26.594Z,14.40
2023-01-07T00:07:31.231Z,13.30
2023-01-07T00:09:33.219Z,13.10
2023-01-07T00:11:37.623Z,12.60
2023-01-07T00:13:40.020Z,13.40
2023-01-07T00:15:42.922Z,12.73
2023-01-07T00:17:44.893Z,12.65
2023-01-07T00:19:47.896Z,12.20
2023-01-07T00:21:49.734Z,13.25
2023-01-07T00:23:56.383Z,12.98
2023-01-07T00:26:19.144Z,12.88
2023-01-07T00:28:21.059Z,13.85
2023-01-07T00:30:25.033Z,13.00
2023-01-07T00:32:47.347Z,14.02
2023-01-07T00:34:50.275Z,15.40
2023-01-07T00:37:12.132Z,15.73
2023-01-07T00:39:19.900Z,16.13
2023-01-07T00:41:22.013Z,18.30
2023-01-07T00:43:24.052Z,17.38
2023-01-07T00:45:26.081Z,17.83
2023-01-07T00:47:27.928Z,18.25
2023-01-07T00:49:32.473Z,18.58
2023-01-07T00:51:34.310Z,18.98
2023-01-07T00:53:36.211Z,18.30
2023-01-07T00:55:38.444Z,18.17
2023-01-07T00:57:40.464Z,19.27
2023-01-07T00:59:42.472Z,19.13
2023-01-07T01:01:44.442Z,19.70
2023-01-07T01:03:46.618Z,19.90
2023-01-07T01:05:50.016Z,19.85
2023-01-07T01:07:52.246Z,20.00
2023-01-07T01:09:54.233Z,20.85
2023-01-07T01:11:56.058Z,20.77
2023-01-07T01:13:57.857Z,21.02
2023-01-07T01:15:59.814Z,19.30
2023-01-07T01:18:01.740Z,23.27
2023-01-07T01:20:04.879Z,21.58
2023-01-07T01:22:06.787Z,22.60
2023-01-07T01:24:08.770Z,23.73
2023-01-07T01:26:14.088Z,22.92
2023-01-07T01:28:15.979Z,22.42
2023-01-07T01:30:17.926Z,21.95
2023-01-07T01:32:19.779Z,22.63
2023-01-07T01:34:21.762Z,21.85
2023-01-07T01:36:24.736Z,22.98
2023-01-07T01:38:26.605Z,22.10
2023-01-07T01:40:30.310Z,23.40
2023-01-07T01:42:32.767Z,21.90
2023-01-07T01:44:56.494Z,21.88
2023-01-07T01:46:58.889Z,20.23
2023-01-07T01:49:06.303Z,21.73
2023-01-07T01:51:10.649Z,22.38
2023-01-07T01:53:22.275Z,20.42
2023-01-07T01:57:33.001Z,20.33
2023-01-07T01:59:42.365Z,20.70
2023-01-07T02:01:44.323Z,20.05
2023-01-07T02:03:48.035Z,20.95
2023-01-07T02:05:50.329Z,20.42
2023-01-07T02:07:52.198Z,21.02
2023-01-07T02:10:19.064Z,20.10
2023-01-07T02:12:42.790Z,20.25
2023-01-07T02:14:44.590Z,19.38
2023-01-07T02:16:58.003Z,19.60
2023-01-07T02:19:27.289Z,19.95
2023-01-07T02:21:35.031Z,19.73
2023-01-07T02:24:28.685Z,19.50
2023-01-07T02:26:54.564Z,19.17
2023-01-07T02:29:10.240Z,19.77
2023-01-07T02:31:33.042Z,20.10
2023-01-07T02:33:51.247Z,20.00
2023-01-07T02:35:53.090Z,20.63
2023-01-07T02:38:04.713Z,21.20
2023-01-07T02:42:52.115Z,20.77
2023-01-07T02:45:12.887Z,20.67
2023-01-07T02:47:24.417Z,22.60
2023-01-07T02:49:26.320Z,21.27
2023-01-07T02:51:41.079Z,20.77
2023-01-07T02:53:45.867Z,20.38
2023-01-07T02:56:11.706Z,21.73
2023-01-07T02:58:41.328Z,20.35
2023-01-07T03:00:52.012Z,20.58
2023-01-07T03:03:22.573Z,20.20
2023-01-07T03:05:34.128Z,20.23
2023-01-07T03:08:32.146Z,19.75
2023-01-07T03:10:44.101Z,21.15
2023-01-07T03:13:00.276Z,20.40
2023-01-07T03:15:13.746Z,19.77
2023-01-07T03:17:43.009Z,19.63
2023-01-07T03:19:50.138Z,20.95
2023-01-07T03:21:54.608Z,20.60
2023-01-07T03:23:57.702Z,21.75
2023-01-07T03:26:05.230Z,21.10
2023-01-07T03:28:09.848Z,21.27
2023-01-07T03:30:15.276Z,20.90
2023-01-07T03:32:18.679Z,19.08
2023-01-07T03:34:25.456Z,20.35
2023-01-07T03:36:56.515Z,19.17
2023-01-07T03:39:00.132Z,20.00
2023-01-07T03:41:02.609Z,20.15
2023-01-07T03:43:04.633Z,20.27
2023-01-07T03:45:11.634Z,19.77
2023-01-07T03:47:13.592Z,19.98
2023-01-07T03:49:16.516Z,18.10
2023-01-07T03:51:18.461Z,18.42
2023-01-07T03:53:20.410Z,18.17
2023-01-07T03:55:22.305Z,18.58
2023-01-07T03:57:24.169Z,18.60
2023-01-07T03:59:25.984Z,19.40
2023-01-07T04:01:28.047Z,21.98
2023-01-07T04:03:30.008Z,21.70
2023-01-07T04:05:31.907Z,16.90
2023-01-07T04:07:33.879Z,15.32
2023-01-07T04:09:35.846Z,14.98
2023-01-07T04:11:37.755Z,14.38
2023-01-07T04:13:40.621Z,15.40
2023-01-07T04:15:43.302Z,14.73
2023-01-07T04:17:45.337Z,14.00
2023-01-07T04:19:47.186Z,14.40
2023-01-07T04:21:55.412Z,15.00
2023-01-07T04:23:57.349Z,14.75
2023-01-07T04:25:59.237Z,15.48
2023-01-07T04:28:01.071Z,15.35
2023-01-07T04:30:03.096Z,13.82
2023-01-07T04:32:05.238Z,15.68
2023-01-07T04:34:10.243Z,14.55
2023-01-07T04:36:13.770Z,15.05
2023-01-07T04:38:15.674Z,13.40
2023-01-07T04:40:17.716Z,13.20
2023-01-07T04:42:19.553Z,13.18
2023-01-07T04:44:21.428Z,13.43
2023-01-07T04:46:24.660Z,13.02
2023-01-07T04:48:26.917Z,13.38
2023-01-07T04:50:28.756Z,13.07
2023-01-07T04:52:30.733Z,13.23
2023-01-07T04:54:32.566Z,13.70
2023-01-07T04:56:34.400Z,13.63
2023-01-07T04:58:36.316Z,13.25
2023-01-07T05:00:38.334Z,13.07
2023-01-07T05:02:40.180Z,12.45
2023-01-07T05:04:42.172Z,12.55
2023-01-07T05:06:44.114Z,11.70
2023-01-07T05:08:46.085Z,11.52
2023-01-07T05:10:51.119Z,12.70
2023-01-07T05:12:53.137Z,13.35
2023-01-07T05:14:54.997Z,13.85
2023-01-07T05:16:56.855Z,13.40
2023-01-07T05:18:58.777Z,12.98
2023-01-07T05:21:00.674Z,10.93
2023-01-07T05:23:02.588Z,10.48
2023-01-07T05:25:04.637Z,10.75
2023-01-07T05:27:06.794Z,10.48
2023-01-07T05:29:10.080Z,10.50
2023-01-07T05:31:11.957Z,10.60
2023-01-07T05:33:14.011Z,10.35
2023-01-07T05:35:15.977Z,9.95
2023-01-07T05:37:18.049Z,10.35
2023-01-07T05:39:19.861Z,10.90
2023-01-07T05:41:21.774Z,11.25
2023-01-07T05:43:24.051Z,12.20
2023-01-07T05:45:25.971Z,15.95
2023-01-07T05:47:27.865Z,21.40
2023-01-07T05:49:29.836Z,21.83
2023-01-07T05:51:31.681Z,21.20
2023-01-07T05:53:33.909Z,14.95
2023-01-07T05:55:38.727Z,11.82
2023-01-07T05:57:40.579Z,11.50
2023-01-07T05:59:43.012Z,11.25
2023-01-07T06:01:44.861Z,12.18
2023-01-07T06:03:46.855Z,12.50
2023-01-07T06:05:49.395Z,12.52
2023-01-07T06:07:51.238Z,12.38
2023-01-07T06:09:53.119Z,13.38
2023-01-07T06:11:54.964Z,12.57
2023-01-07T06:13:56.782Z,11.60
2023-01-07T06:16:07.406Z,12.32
2023-01-07T06:18:09.298Z,11.43
2023-01-07T06:20:11.792Z,10.65
2023-01-07T06:22:14.806Z,9.20
2023-01-07T06:24:16.681Z,9.20
2023-01-07T06:26:18.544Z,9.68
2023-01-07T06:28:20.689Z,9.85
2023-01-07T06:30:22.551Z,8.88
2023-01-07T06:32:24.639Z,11.40
2023-01-07T06:34:26.561Z,12.52
2023-01-07T06:36:28.490Z,12.38
2023-01-07T06:38:30.953Z,12.85
2023-01-07T06:40:33.197Z,12.68
2023-01-07T06:42:35.369Z,13.07
2023-01-07T06:44:37.170Z,11.93
2023-01-07T06:46:39.033Z,11.98
2023-01-07T06:48:40.960Z,12.18
2023-01-07T06:50:43.906Z,12.48
2023-01-07T06:52:45.853Z,10.18
2023-01-07T06:54:48.616Z,10.07
2023-01-07T06:56:50.616Z,9.32
2023-01-07T06:58:52.540Z,10.00
2023-01-07T07:00:54.401Z,9.38
2023-01-07T07:02:58.739Z,9.93
2023-01-07T07:05:00.691Z,8.55
2023-01-07T07:07:02.528Z,8.98
2023-01-07T07:09:04.401Z,9.18
2023-01-07T07:11:06.321Z,8.85
2023-01-07T07:13:08.615Z,8.57
2023-01-07T07:15:10.927Z,9.25
2023-01-07T07:17:12.786Z,9.32
2023-01-07T07:19:14.620Z,9.02
2023-01-07T07:21:16.507Z,8.95
2023-01-07T07:23:18.491Z,8.82
2023-01-07T07:25:20.588Z,8.75
2023-01-07T07:27:22.443Z,10.27
2023-01-07T07:29:24.320Z,9.85
2023-01-07T07:31:26.223Z,9.73
2023-01-07T07:33:28.174Z,9.38
2023-01-07T07:35:30.937Z,9.10
2023-01-07T07:37:32.845Z,9.00
2023-01-07T07:39:34.770Z,9.73
2023-01-07T07:41:36.590Z,9.25
2023-01-07T07:43:38.587Z,8.95
2023-01-07T07:45:43.861Z,9.45
2023-01-07T07:47:46.556Z,8.88
2023-01-07T07:49:48.468Z,9.60
2023-01-07T07:51:50.381Z,9.50
2023-01-07T07:53:52.299Z,8.93
2023-01-07T07:55:54.272Z,9.10
2023-01-07T07:57:58.569Z,9.45
2023-01-07T08:00:00.474Z,10.35
2023-01-07T08:02:02.443Z,9.27
2023-01-07T08:04:04.399Z,9.55
2023-01-07T08:06:06.838Z,10.27
2023-01-07T08:08:10.272Z,9.35
2023-01-07T08:10:12.307Z,9.70
2023-01-07T08:12:16.752Z,9.40
2023-01-07T08:14:24.223Z,9.77
2023-01-07T08:16:28.855Z,9.52
2023-01-07T08:21:28.388Z,9.93
2023-01-07T08:23:31.563Z,8.98
2023-01-07T08:25:35.151Z,9.45
2023-01-07T08:27:39.140Z,8.98
2023-01-07T08:29:41.113Z,10.13
2023-01-07T08:31:43.205Z,8.77
2023-01-07T08:33:45.144Z,10.15
2023-01-07T08:35:47.187Z,9.57
2023-01-07T08:37:49.464Z,9.48
2023-01-07T08:39:51.293Z,9.90
2023-01-07T08:41:58.610Z,9.30
2023-01-07T08:44:01.551Z,10.13
2023-01-07T08:46:03.542Z,9.70
2023-01-07T08:48:06.084Z,10.43
2023-01-07T08:50:09.414Z,9.52
2023-01-07T08:52:14.309Z,9.05
2023-01-07T08:54:20.043Z,10.05
2023-01-07T08:56:23.110Z,9.35
2023-01-07T08:58:27.505Z,9.73
2023-01-07T09:00:29.489Z,9.57
2023-01-07T09:02:31.421Z,9.77
2023-01-07T09:04:36.052Z,9.77
2023-01-07T09:06:38.037Z,10.05
2023-01-07T09:08:40.746Z,10.27
2023-01-07T09:10:43.868Z,10.07
2023-01-07T09:12:46.193Z,9.38
2023-01-07T09:14:48.287Z,9.45
2023-01-07T09:16:50.165Z,9.10
2023-01-07T09:18:52.116Z,9.20
2023-01-07T09:20:54.155Z,9.45
2023-01-07T09:22:56.091Z,8.70
2023-01-07T09:24:57.953Z,9.70
2023-01-07T09:26:59.882Z,9.73
2023-01-07T09:29:01.797Z,9.35
2023-01-07T09:31:04.527Z,9.48
2023-01-07T09:33:06.613Z,10.23
2023-01-07T09:35:08.981Z,10.55
2023-01-07T09:37:10.872Z,11.13
2023-01-07T09:39:13.292Z,9.23
2023-01-07T09:41:44.654Z,10.18
2023-01-07T09:43:59.367Z,10.07
2023-01-07T09:46:09.009Z,10.82
2023-01-07T09:48:27.068Z,10.13
2023-01-07T09:50:55.258Z,11.15
2023-01-07T09:53:03.701Z,10.75
2023-01-07T09:55:13.975Z,11.77
2023-01-07T09:57:18.127Z,11.82
2023-01-07T09:59:20.311Z,12.80
2023-01-07T10:02:00.036Z,12.15
2023-01-07T10:04:30.174Z,12.60
2023-01-07T10:06:58.499Z,13.63
2023-01-07T10:09:08.295Z,13.00
2023-01-07T10:11:49.922Z,14.20
2023-01-07T10:13:57.501Z,14.07
2023-01-07T10:16:10.626Z,13.10
2023-01-07T10:18:22.502Z,13.75
2023-01-07T10:20:50.451Z,14.50
2023-01-07T10:23:03.660Z,13.48
2023-01-07T10:25:16.265Z,12.88
2023-01-07T10:27:29.936Z,12.70
2023-01-07T10:29:37.775Z,13.27
2023-01-07T10:31:40.463Z,12.02
2023-01-07T10:33:44.105Z,11.68
2023-01-07T10:35:49.321Z,12.52
2023-01-07T10:37:52.180Z,12.77
2023-01-07T10:40:13.030Z,13.15
2023-01-07T10:42:30.037Z,13.37
2023-01-07T10:44:46.685Z,13.35
2023-01-07T10:47:19.248Z,14.45
2023-01-07T10:49:39.808Z,14.15
2023-01-07T10:52:27.100Z,14.02
2023-01-07T10:55:07.505Z,14.65
2023-01-07T10:57:24.009Z,15.18
2023-01-07T10:59:26.162Z,14.18
2023-01-07T11:01:37.568Z,15.02
2023-01-07T11:03:40.559Z,14.38
2023-01-07T11:05:42.801Z,13.70
2023-01-07T11:07:48.568Z,13.55
2023-01-07T11:09:53.079Z,13.68
2023-01-07T11:11:58.159Z,13.35
2023-01-07T11:14:07.305Z,13.02
2023-01-07T11:16:23.806Z,13.80
2023-01-07T11:18:39.689Z,14.32
2023-01-07T11:20:53.435Z,13.77
2023-01-07T11:22:55.296Z,13.98
2023-01-07T11:24:59.567Z,13.55
2023-01-07T11:27:16.618Z,12.32
2023-01-07T11:29:28.576Z,11.68
2023-01-07T11:32:04.179Z,11.95
2023-01-07T11:34:06.607Z,10.65
2023-01-07T11:36:09.133Z,10.50
2023-01-07T11:38:31.962Z,10.80
2023-01-07T11:40:33.975Z,10.57
2023-01-07T11:42:57.655Z,9.57
2023-01-07T11:45:23.576Z,9.93
2023-01-07T11:47:25.545Z,11.30
2023-01-07T11:49:30.346Z,10.38
2023-01-07T11:51:41.643Z,10.05
2023-01-07T11:53:53.302Z,11.10
2023-01-07T11:58:28.129Z,10.13
2023-01-07T12:00:22.180Z,10.15
2023-01-07T12:02:27.406Z,10.23
2023-01-07T12:04:37.503Z,10.43
2023-01-07T12:06:42.163Z,10.10
2023-01-07T12:08:56.356Z,9.68
2023-01-07T12:11:09.284Z,9.35
2023-01-07T12:13:23.594Z,10.05
2023-01-07T12:15:37.699Z,10.38
2023-01-07T12:17:53.294Z,9.63
2023-01-07T12:20:10.402Z,8.75
2023-01-07T12:22:21.111Z,9.13
2023-01-07T12:24:50.241Z,9.43
2023-01-07T12:27:15.576Z,8.88
2023-01-07T12:29:39.464Z,8.55
2023-01-07T12:32:07.863Z,9.13
2023-01-07T12:34:19.483Z,8.93
2023-01-07T12:38:50.660Z,10.00
2023-01-07T12:43:15.506Z,15.38
2023-01-07T12:45:35.006Z,16.23
2023-01-07T12:47:52.841Z,17.35
2023-01-07T12:50:24.661Z,17.63
2023-01-07T12:52:51.193Z,16.65
2023-01-07T12:54:58.872Z,16.58
2023-01-07T12:57:10.484Z,15.30
2023-01-07T13:02:04.600Z,15.18
2023-01-07T13:04:26.849Z,14.93
2023-01-07T13:08:55.791Z,16.40
2023-01-07T13:11:20.472Z,17.90
2023-01-07T13:13:34.142Z,17.90
2023-01-07T13:15:39.745Z,16.33
2023-01-07T13:17:43.570Z,15.75
2023-01-07T13:19:45.713Z,15.73
2023-01-07T13:21:50.669Z,16.00
2023-01-07T13:24:14.768Z,13.80
2023-01-07T13:26:45.602Z,11.63
2023-01-07T13:28:55.960Z,9.43
2023-01-07T13:31:19.920Z,9.02
2023-01-07T13:33:32.517Z,8.88
2023-01-07T13:36:04.386Z,9.20
2023-01-07T13:40:26.079Z,10.23
2023-01-07T13:42:47.155Z,9.85
2023-01-07T13:45:03.145Z,11.50
2023-01-07T13:47:08.369Z,11.40
2023-01-07T13:49:32.357Z,11.63
2023-01-07T13:51:38.342Z,12.18
2023-01-07T13:53:42.502Z,12.25
2023-01-07T13:55:50.243Z,12.82
2023-01-07T13:57:52.445Z,13.40
2023-01-07T13:59:56.744Z,14.50
2023-01-07T14:02:18.724Z,16.38
2023-01-07T14:04:34.605Z,23.73
2023-01-07T14:06:42.104Z,25.25
2023-01-07T14:08:47.476Z,16.00
2023-01-07T14:10:54.536Z,14.57
2023-01-07T14:13:35.965Z,12.43
2023-01-07T14:15:43.921Z,12.63
2023-01-07T14:18:01.717Z,12.10
2023-01-07T14:20:32.765Z,14.05
2023-01-07T14:23:12.318Z,13.23
2023-01-07T14:25:50.217Z,12.55
2023-01-07T14:28:25.397Z,12.35
2023-01-07T14:30:43.172Z,11.48
2023-01-07T14:32:45.207Z,10.50
2023-01-07T14:34:59.083Z,11.32
2023-01-07T14:37:05.245Z,10.80
2023-01-07T14:39:35.159Z,12.95
2023-01-07T14:42:15.230Z,12.73
2023-01-07T14:44:27.374Z,12.38
2023-01-07T14:46:49.247Z,13.07
2023-01-07T14:49:03.245Z,14.00
2023-01-07T14:51:34.853Z,13.43
2023-01-07T14:54:12.492Z,13.18
2023-01-07T14:56:31.867Z,13.65
2023-01-07T14:58:40.913Z,14.30
2023-01-07T15:01:05.520Z,14.73
2023-01-07T15:03:24.908Z,19.55
2023-01-07T15:05:55.464Z,17.25
2023-01-07T15:08:20.924Z,21.08
2023-01-07T15:10:49.936Z,24.80
2023-01-07T15:13:15.334Z,22.42
2023-01-07T15:15:41.228Z,21.48
2023-01-07T15:17:43.513Z,23.88
2023-01-07T15:19:45.955Z,24.17
2023-01-07T15:22:23.633Z,17.30
2023-01-07T15:24:55.043Z,17.52
2023-01-07T15:27:02.469Z,14.65
2023-01-07T15:29:20.698Z,16.10
2023-01-07T15:31:47.169Z,15.43
2023-01-07T15:33:52.294Z,14.55
2023-01-07T15:35:56.271Z,15.23
2023-01-07T15:37:59.488Z,14.60
2023-01-07T15:40:01.844Z,13.98
2023-01-07T15:42:04.139Z,14.13
2023-01-07T15:44:14.805Z,15.38
2023-01-07T15:46:17.190Z,15.98
2023-01-07T15:48:19.481Z,15.32
2023-01-07T15:50:24.748Z,16.73
2023-01-07T15:52:28.015Z,19.80
2023-01-07T15:54:38.503Z,21.23
2023-01-07T15:56:40.560Z,23.08
2023-01-07T15:58:50.409Z,23.27
2023-01-07T16:00:56.750Z,24.52
2023-01-07T16:03:03.665Z,27.63
2023-01-07T16:05:06.625Z,22.45
2023-01-07T16:07:31.504Z,22.02
2023-01-07T16:09:34.426Z,23.95
2023-01-07T16:11:36.481Z,22.23
2023-01-07T16:13:38.426Z,22.55
2023-01-07T16:15:41.561Z,21.92
2023-01-07T16:17:53.262Z,21.65
2023-01-07T16:20:25.120Z,24.17
2023-01-07T16:24:33.738Z,27.00
2023-01-07T16:26:41.352Z,27.00
2023-01-07T16:29:00.983Z,24.55
2023-01-07T16:31:14.933Z,23.00
2023-01-07T16:33:23.261Z,23.00
2023-01-07T16:35:33.222Z,21.67
2023-01-07T16:37:40.494Z,22.38
2023-01-07T16:39:48.453Z,19.83
2023-01-07T16:41:53.944Z,17.60
2023-01-07T16:44:00.814Z,18.95
2023-01-07T16:46:29.857Z,19.38
2023-01-07T16:48:32.047Z,19.63
2023-01-07T16:50:39.994Z,22.35
2023-01-07T16:52:57.530Z,21.63
2023-01-07T16:55:01.602Z,19.77
2023-01-07T16:57:16.249Z,17.60
2023-01-07T16:59:19.670Z,18.30
2023-01-07T17:01:31.193Z,17.60
2023-01-07T17:06:07.541Z,18.88
2023-01-07T17:08:18.947Z,18.05
2023-01-07T17:10:26.840Z,18.10
2023-01-07T17:12:36.453Z,18.17
2023-01-07T17:14:41.230Z,17.33
2023-01-07T17:16:43.643Z,17.13
2023-01-07T17:18:45.754Z,20.13
2023-01-07T17:20:52.742Z,27.15
2023-01-07T17:22:54.773Z,35.08
2023-01-07T17:25:21.728Z,36.38
2023-01-07T17:27:29.952Z,28.23
2023-01-07T17:29:42.730Z,25.50
2023-01-07T17:31:48.213Z,29.52
2023-01-07T17:33:51.780Z,29.13
2023-01-07T17:35:57.769Z,24.58
2023-01-07T17:37:59.777Z,25.35
2023-01-07T17:40:01.794Z,24.60
2023-01-07T17:42:24.386Z,21.98
2023-01-07T17:44:26.676Z,20.00
2023-01-07T17:46:30.327Z,22.02
2023-01-07T17:48:33.313Z,21.30
2023-01-07T17:50:37.289Z,22.10
2023-01-07T17:52:43.067Z,19.00
2023-01-07T17:54:47.134Z,21.67
2023-01-07T17:56:52.279Z,23.00
2023-01-07T17:58:56.143Z,22.88
2023-01-07T18:01:00.906Z,21.33
2023-01-07T18:03:03.091Z,19.77
2023-01-07T18:05:05.722Z,21.58
2023-01-07T18:07:12.967Z,27.92
2023-01-07T18:09:14.914Z,26.85
2023-01-07T18:11:43.240Z,25.05
2023-01-07T18:13:45.285Z,22.10
2023-01-07T18:15:50.193Z,20.20
2023-01-07T18:17:52.519Z,23.15
2023-01-07T18:19:55.129Z,27.45
2023-01-07T18:21:57.113Z,25.60
2023-01-07T18:23:59.215Z,23.55
2023-01-07T18:26:01.165Z,21.23
2023-01-07T18:28:04.511Z,20.77
2023-01-07T18:30:07.005Z,18.60
2023-01-07T18:32:09.042Z,18.30
2023-01-07T18:34:13.312Z,18.10
2023-01-07T18:36:16.983Z,16.85
2023-01-07T18:38:19.217Z,17.50
2023-01-07T18:40:21.584Z,19.27
2023-01-07T18:42:23.593Z,19.15
2023-01-07T18:44:25.849Z,21.25
2023-01-07T18:46:28.152Z,21.30
2023-01-07T18:48:31.212Z,20.02
2023-01-07T18:50:33.722Z,18.88
2023-01-07T18:52:41.819Z,20.35
2023-01-07T18:54:46.372Z,25.95
2023-01-07T18:56:48.403Z,21.40
2023-01-07T18:58:54.511Z,20.90
2023-01-07T19:01:02.989Z,19.20
2023-01-07T19:03:07.383Z,21.77
2023-01-07T19:05:09.544Z,21.30
2023-01-07T19:07:11.583Z,22.08
2023-01-07T19:09:18.211Z,21.88
2023-01-07T19:11:20.403Z,22.70
2023-01-07T19:13:22.561Z,21.88
2023-01-07T19:15:25.565Z,23.02
2023-01-07T19:17:28.415Z,22.90
2023-01-07T19:19:37.067Z,23.65
2023-01-07T19:21:47.459Z,22.23
2023-01-07T19:23:49.514Z,22.23
2023-01-07T19:26:03.652Z,22.63
2023-01-07T19:28:05.712Z,23.20
2023-01-07T19:30:08.327Z,23.67
2023-01-07T19:32:10.330Z,24.27
2023-01-07T19:34:13.880Z,24.08
2023-01-07T19:36:17.706Z,23.05
2023-01-07T19:38:20.522Z,23.60
2023-01-07T19:40:23.364Z,25.20
2023-01-07T19:42:25.349Z,25.85
2023-01-07T19:44:27.299Z,24.42
2023-01-07T19:46:29.460Z,25.98
2023-01-07T19:48:31.965Z,25.35
2023-01-07T19:50:34.009Z,26.08
2023-01-07T19:52:35.923Z,26.63
2023-01-07T19:54:37.898Z,25.30
2023-01-07T19:56:40.824Z,26.13
2023-01-07T19:58:42.858Z,26.25
2023-01-07T20:00:45.633Z,26.92
2023-01-07T20:02:47.711Z,27.95
2023-01-07T20:04:49.707Z,26.80
2023-01-07T20:06:51.700Z,28.17
2023-01-07T20:08:55.435Z,26.42
2023-01-07T20:10:59.281Z,27.05
2023-01-07T20:13:01.342Z,26.08
2023-01-07T20:15:06.426Z,27.52
2023-01-07T20:17:10.180Z,28.48
2023-01-07T20:19:14.014Z,26.25
2023-01-07T20:21:18.834Z,25.65
2023-01-07T20:23:26.493Z,26.88
2023-01-07T20:25:28.587Z,26.75
2023-01-07T20:27:30.466Z,26.15
2023-01-07T20:29:32.391Z,27.45
2023-01-07T20:31:34.342Z,26.35
2023-01-07T20:33:36.299Z,28.17
2023-01-07T20:35:39.921Z,26.67
2023-01-07T20:37:42.014Z,30.00
2023-01-07T20:39:44.053Z,26.65
2023-01-07T20:41:45.983Z,25.75
2023-01-07T20:43:53.281Z,24.38
2023-01-07T20:45:59.119Z,24.80
2023-01-07T20:48:04.352Z,23.30
2023-01-07T20:50:10.273Z,23.80
2023-01-07T20:52:12.341Z,23.83
2023-01-07T20:54:15.391Z,24.17
2023-01-07T20:56:19.831Z,22.42
2023-01-07T20:58:21.899Z,23.27
2023-01-07T21:00:24.149Z,25.40
2023-01-07T21:02:26.215Z,29.05
2023-01-07T21:04:30.227Z,25.95
2023-01-07T21:06:32.336Z,24.15
2023-01-07T21:08:35.570Z,23.23
2023-01-07T21:10:38.177Z,22.70
2023-01-07T21:12:40.212Z,22.85
2023-01-07T21:14:42.107Z,23.15
2023-01-07T21:16:44.652Z,23.40
2023-01-07T21:18:47.707Z,22.15
2023-01-07T21:20:49.654Z,22.42
2023-01-07T21:22:51.644Z,21.15
2023-01-07T21:24:54.530Z,22.30
2023-01-07T21:26:56.483Z,22.20
2023-01-07T21:28:59.260Z,23.23
2023-01-07T21:31:09.056Z,22.42
2023-01-07T21:33:11.218Z,22.35
2023-01-07T21:35:13.998Z,21.92
2023-01-07T21:37:15.878Z,22.75
2023-01-07T21:39:20.678Z,24.42
2023-01-07T21:41:23.873Z,24.27
2023-01-07T21:43:25.920Z,23.85
2023-01-07T21:45:30.235Z,23.73
2023-01-07T21:47:32.701Z,25.90
2023-01-07T21:49:34.612Z,24.25
2023-01-07T21:51:38.806Z,24.98
2023-01-07T21:53:44.582Z,24.83
2023-01-07T21:55:49.444Z,23.92
2023-01-07T21:57:51.349Z,22.27
2023-01-07T22:00:26.998Z,22.92
2023-01-07T22:02:48.210Z,22.90
2023-01-07T22:04:53.886Z,24.35
2023-01-07T22:07:01.256Z,25.63
2023-01-07T22:09:36.482Z,23.92
2023-01-07T22:14:03.906Z,25.23
2023-01-07T22:16:19.020Z,28.98
2023-01-07T22:18:37.657Z,26.75
2023-01-07T22:21:06.311Z,23.58
2023-01-07T22:23:17.182Z,25.85
2023-01-07T22:25:26.774Z,24.02
2023-01-07T22:27:36.824Z,25.65
2023-01-07T22:29:49.380Z,23.77
2023-01-07T22:32:00.396Z,24.48
2023-01-07T22:34:05.429Z,24.13
2023-01-07T22:36:17.583Z,24.40
2023-01-07T22:38:38.417Z,23.48
2023-01-07T22:41:00.046Z,23.13
2023-01-07T22:43:08.214Z,24.20
2023-01-07T22:45:30.982Z,22.73
2023-01-07T22:47:40.637Z,23.65
2023-01-07T22:49:44.955Z,25.13
2023-01-07T22:51:52.936Z,24.73
2023-01-07T22:53:56.943Z,22.92
2023-01-07T22:56:01.336Z,24.05
2023-01-07T22:58:10.915Z,25.05
2023-01-07T23:00:45.025Z,25.58
2023-01-07T23:03:07.201Z,24.38
2023-01-07T23:05:25.514Z,23.48
2023-01-07T23:07:38.312Z,24.23
2023-01-07T23:09:44.328Z,24.88
2023-01-07T23:11:49.275Z,24.75
2023-01-07T23:13:51.448Z,24.30
2023-01-07T23:16:07.867Z,25.45
2023-01-07T23:18:11.571Z,23.98
2023-01-07T23:20:13.497Z,24.45
2023-01-07T23:22:15.367Z,25.05
2023-01-07T23:24:17.709Z,24.20
2023-01-07T23:26:19.652Z,25.30
2023-01-07T23:28:21.576Z,24.95
2023-01-07T23:30:27.494Z,24.23
2023-01-07T23:32:31.746Z,23.35
2023-01-07T23:34:37.625Z,23.15
2023-01-07T23:36:53.364Z,25.30
2023-01-07T23:38:56.493Z,25.40
2023-01-07T23:41:28.305Z,25.65
2023-01-07T23:43:30.632Z,25.02
2023-01-07T23:45:32.865Z,24.85
2023-01-07T23:47:34.945Z,25.23
2023-01-07T23:50:10.745Z,26.10
2023-01-07T23:52:50.330Z,26.27
2023-01-07T23:55:01.199Z,25.52
2023-01-07T23:57:03.381Z,24.38
2023-01-07T23:59:06.770Z,24.73
